sensor_id;sensor_type;location;lat;lon;timestamp;P1;durP1;ratioP1;P2;durP2;ratioP2
77466;SDS011;66564;42.482;25.548;2023-09-19T00:00:03;7.97;;;4.85;;
77466;SDS011;66564;42.482;25.548;2023-09-19T00:02:31;7.07;;;4.88;;
77466;SDS011;66564;42.482;25.548;2023-09-19T00:04:58;7.50;;;5.30;;
77466;SDS011;66564;42.482;25.548;2023-09-19T00:07:23;6.47;;;4.50;;
77466;SDS011;66564;42.482;25.548;2023-09-19T00:09:49;7.05;;;4.55;;
77466;SDS011;66564;42.482;25.548;2023-09-19T00:12:14;8.27;;;5.30;;
77466;SDS011;66564;42.482;25.548;2023-09-19T00:14:40;7.32;;;4.68;;
77466;SDS011;66564;42.482;25.548;2023-09-19T00:17:05;9.23;;;5.13;;
77466;SDS011;66564;42.482;25.548;2023-09-19T00:19:33;10.10;;;5.03;;
77466;SDS011;66564;42.482;25.548;2023-09-19T00:22:07;8.88;;;5.22;;
77466;SDS011;66564;42.482;25.548;2023-09-19T00:24:34;7.40;;;4.18;;
77466;SDS011;66564;42.482;25.548;2023-09-19T00:26:59;6.28;;;4.57;;
77466;SDS011;66564;42.482;25.548;2023-09-19T00:29:25;6.05;;;4.72;;
77466;SDS011;66564;42.482;25.548;2023-09-19T00:31:54;7.18;;;5.05;;
77466;SDS011;66564;42.482;25.548;2023-09-19T00:34:22;9.02;;;4.93;;
77466;SDS011;66564;42.482;25.548;2023-09-19T00:36:47;8.75;;;5.70;;
77466;SDS011;66564;42.482;25.548;2023-09-19T00:39:12;7.65;;;5.10;;
77466;SDS011;66564;42.482;25.548;2023-09-19T00:41:38;8.27;;;5.05;;
77466;SDS011;66564;42.482;25.548;2023-09-19T00:44:03;6.53;;;5.05;;
77466;SDS011;66564;42.482;25.548;2023-09-19T00:46:30;6.32;;;4.35;;
77466;SDS011;66564;42.482;25.548;2023-09-19T00:48:57;20.08;;;5.85;;
77466;SDS011;66564;42.482;25.548;2023-09-19T00:51:24;7.63;;;4.78;;
77466;SDS011;66564;42.482;25.548;2023-09-19T00:53:51;8.43;;;4.97;;
77466;SDS011;66564;42.482;25.548;2023-09-19T00:56:17;8.13;;;4.18;;
77466;SDS011;66564;42.482;25.548;2023-09-19T00:58:44;7.60;;;4.50;;
77466;SDS011;66564;42.482;25.548;2023-09-19T01:01:11;8.77;;;5.13;;
77466;SDS011;66564;42.482;25.548;2023-09-19T01:03:39;8.30;;;5.05;;
77466;SDS011;66564;42.482;25.548;2023-09-19T01:06:06;6.43;;;4.65;;
77466;SDS011;66564;42.482;25.548;2023-09-19T01:08:32;6.68;;;4.63;;
77466;SDS011;66564;42.482;25.548;2023-09-19T01:11:20;9.07;;;5.25;;
77466;SDS011;66564;42.482;25.548;2023-09-19T01:13:56;8.15;;;4.80;;
77466;SDS011;66564;42.482;25.548;2023-09-19T01:19:27;7.43;;;4.78;;
77466;SDS011;66564;42.482;25.548;2023-09-19T01:28:01;10.65;;;5.18;;
77466;SDS011;66564;42.482;25.548;2023-09-19T01:30:35;9.32;;;5.38;;
77466;SDS011;66564;42.482;25.548;2023-09-19T01:33:05;7.78;;;4.55;;
77466;SDS011;66564;42.482;25.548;2023-09-19T01:35:31;7.20;;;4.53;;
77466;SDS011;66564;42.482;25.548;2023-09-19T01:37:59;7.63;;;4.82;;
77466;SDS011;66564;42.482;25.548;2023-09-19T01:40:24;7.03;;;4.93;;
77466;SDS011;66564;42.482;25.548;2023-09-19T01:48:30;9.70;;;4.57;;
77466;SDS011;66564;42.482;25.548;2023-09-19T01:51:00;7.43;;;5.35;;
77466;SDS011;66564;42.482;25.548;2023-09-19T01:56:19;9.15;;;4.80;;
77466;SDS011;66564;42.482;25.548;2023-09-19T01:58:48;8.77;;;5.38;;
77466;SDS011;66564;42.482;25.548;2023-09-19T02:01:22;8.77;;;5.60;;
77466;SDS011;66564;42.482;25.548;2023-09-19T02:03:49;7.15;;;4.80;;
77466;SDS011;66564;42.482;25.548;2023-09-19T02:06:15;9.75;;;5.63;;
77466;SDS011;66564;42.482;25.548;2023-09-19T02:08:43;9.85;;;5.28;;
77466;SDS011;66564;42.482;25.548;2023-09-19T02:11:10;6.53;;;5.15;;
77466;SDS011;66564;42.482;25.548;2023-09-19T02:13:36;6.22;;;4.70;;
77466;SDS011;66564;42.482;25.548;2023-09-19T02:16:02;8.75;;;5.40;;
77466;SDS011;66564;42.482;25.548;2023-09-19T02:18:29;7.93;;;5.32;;
77466;SDS011;66564;42.482;25.548;2023-09-19T02:20:55;7.50;;;5.30;;
77466;SDS011;66564;42.482;25.548;2023-09-19T02:23:21;9.38;;;5.18;;
77466;SDS011;66564;42.482;25.548;2023-09-19T02:25:53;7.80;;;4.90;;
77466;SDS011;66564;42.482;25.548;2023-09-19T02:28:19;6.95;;;5.07;;
77466;SDS011;66564;42.482;25.548;2023-09-19T02:30:47;8.52;;;5.13;;
77466;SDS011;66564;42.482;25.548;2023-09-19T02:33:14;12.82;;;5.55;;
77466;SDS011;66564;42.482;25.548;2023-09-19T02:35:40;8.65;;;4.95;;
77466;SDS011;66564;42.482;25.548;2023-09-19T02:38:05;9.32;;;5.75;;
77466;SDS011;66564;42.482;25.548;2023-09-19T02:40:32;7.20;;;5.22;;
77466;SDS011;66564;42.482;25.548;2023-09-19T02:43:00;7.15;;;5.20;;
77466;SDS011;66564;42.482;25.548;2023-09-19T02:45:26;11.32;;;5.75;;
77466;SDS011;66564;42.482;25.548;2023-09-19T02:47:52;7.85;;;4.60;;
77466;SDS011;66564;42.482;25.548;2023-09-19T02:50:18;6.95;;;4.53;;
77466;SDS011;66564;42.482;25.548;2023-09-19T02:52:44;9.55;;;5.15;;
77466;SDS011;66564;42.482;25.548;2023-09-19T02:55:13;7.65;;;4.93;;
77466;SDS011;66564;42.482;25.548;2023-09-19T02:57:45;10.60;;;5.13;;
77466;SDS011;66564;42.482;25.548;2023-09-19T03:00:15;11.30;;;4.93;;
77466;SDS011;66564;42.482;25.548;2023-09-19T03:02:50;8.57;;;4.82;;
77466;SDS011;66564;42.482;25.548;2023-09-19T03:05:18;8.60;;;5.10;;
77466;SDS011;66564;42.482;25.548;2023-09-19T03:07:43;6.18;;;4.28;;
77466;SDS011;66564;42.482;25.548;2023-09-19T03:10:10;9.45;;;4.85;;
77466;SDS011;66564;42.482;25.548;2023-09-19T03:12:36;7.50;;;5.00;;
77466;SDS011;66564;42.482;25.548;2023-09-19T03:15:03;7.55;;;5.15;;
77466;SDS011;66564;42.482;25.548;2023-09-19T03:17:29;8.13;;;4.97;;
77466;SDS011;66564;42.482;25.548;2023-09-19T03:19:55;7.57;;;5.03;;
77466;SDS011;66564;42.482;25.548;2023-09-19T03:22:22;7.72;;;5.05;;
77466;SDS011;66564;42.482;25.548;2023-09-19T03:24:47;8.95;;;4.72;;
77466;SDS011;66564;42.482;25.548;2023-09-19T03:27:13;6.50;;;4.68;;
77466;SDS011;66564;42.482;25.548;2023-09-19T03:29:44;7.95;;;5.13;;
77466;SDS011;66564;42.482;25.548;2023-09-19T03:32:09;9.07;;;5.40;;
77466;SDS011;66564;42.482;25.548;2023-09-19T03:34:36;9.45;;;5.40;;
77466;SDS011;66564;42.482;25.548;2023-09-19T03:37:05;9.45;;;5.00;;
77466;SDS011;66564;42.482;25.548;2023-09-19T03:39:31;8.60;;;4.68;;
77466;SDS011;66564;42.482;25.548;2023-09-19T03:41:57;7.28;;;5.13;;
77466;SDS011;66564;42.482;25.548;2023-09-19T03:44:23;6.95;;;4.97;;
77466;SDS011;66564;42.482;25.548;2023-09-19T03:46:48;7.78;;;5.05;;
77466;SDS011;66564;42.482;25.548;2023-09-19T03:49:13;8.23;;;4.95;;
77466;SDS011;66564;42.482;25.548;2023-09-19T03:51:39;6.90;;;4.90;;
77466;SDS011;66564;42.482;25.548;2023-09-19T03:54:06;8.30;;;5.30;;
77466;SDS011;66564;42.482;25.548;2023-09-19T03:56:32;8.60;;;5.53;;
77466;SDS011;66564;42.482;25.548;2023-09-19T03:58:57;7.57;;;4.93;;
77466;SDS011;66564;42.482;25.548;2023-09-19T04:01:23;12.20;;;4.80;;
77466;SDS011;66564;42.482;25.548;2023-09-19T04:03:48;12.63;;;5.40;;
77466;SDS011;66564;42.482;25.548;2023-09-19T04:06:16;9.13;;;5.35;;
77466;SDS011;66564;42.482;25.548;2023-09-19T04:08:43;10.80;;;5.28;;
77466;SDS011;66564;42.482;25.548;2023-09-19T04:11:09;7.68;;;5.20;;
77466;SDS011;66564;42.482;25.548;2023-09-19T04:13:35;8.07;;;5.10;;
77466;SDS011;66564;42.482;25.548;2023-09-19T04:16:01;18.63;;;6.15;;
77466;SDS011;66564;42.482;25.548;2023-09-19T04:18:29;9.35;;;5.13;;
77466;SDS011;66564;42.482;25.548;2023-09-19T04:20:57;8.75;;;5.38;;
77466;SDS011;66564;42.482;25.548;2023-09-19T04:23:23;6.43;;;4.70;;
77466;SDS011;66564;42.482;25.548;2023-09-19T04:25:49;8.00;;;5.50;;
77466;SDS011;66564;42.482;25.548;2023-09-19T04:28:15;10.40;;;5.40;;
77466;SDS011;66564;42.482;25.548;2023-09-19T04:30:41;10.25;;;5.80;;
77466;SDS011;66564;42.482;25.548;2023-09-19T04:33:06;10.27;;;6.65;;
77466;SDS011;66564;42.482;25.548;2023-09-19T04:35:32;9.95;;;6.50;;
77466;SDS011;66564;42.482;25.548;2023-09-19T04:38:00;11.68;;;7.10;;
77466;SDS011;66564;42.482;25.548;2023-09-19T04:40:26;15.18;;;6.13;;
77466;SDS011;66564;42.482;25.548;2023-09-19T04:42:55;13.00;;;5.60;;
77466;SDS011;66564;42.482;25.548;2023-09-19T04:45:23;13.77;;;6.45;;
77466;SDS011;66564;42.482;25.548;2023-09-19T04:47:49;16.77;;;6.03;;
77466;SDS011;66564;42.482;25.548;2023-09-19T04:50:15;19.05;;;6.63;;
77466;SDS011;66564;42.482;25.548;2023-09-19T04:52:42;17.33;;;6.10;;
77466;SDS011;66564;42.482;25.548;2023-09-19T04:55:15;12.55;;;5.80;;
77466;SDS011;66564;42.482;25.548;2023-09-19T04:57:44;17.00;;;5.97;;
77466;SDS011;66564;42.482;25.548;2023-09-19T05:00:14;18.73;;;6.80;;
77466;SDS011;66564;42.482;25.548;2023-09-19T05:02:45;15.65;;;5.72;;
77466;SDS011;66564;42.482;25.548;2023-09-19T05:05:11;23.33;;;7.25;;
77466;SDS011;66564;42.482;25.548;2023-09-19T05:07:39;19.10;;;6.75;;
77466;SDS011;66564;42.482;25.548;2023-09-19T05:10:06;13.60;;;6.68;;
77466;SDS011;66564;42.482;25.548;2023-09-19T05:12:33;11.07;;;5.57;;
77466;SDS011;66564;42.482;25.548;2023-09-19T05:14:59;12.55;;;6.07;;
77466;SDS011;66564;42.482;25.548;2023-09-19T05:17:26;10.73;;;6.43;;
77466;SDS011;66564;42.482;25.548;2023-09-19T05:19:52;10.05;;;5.95;;
77466;SDS011;66564;42.482;25.548;2023-09-19T05:22:17;14.55;;;7.65;;
77466;SDS011;66564;42.482;25.548;2023-09-19T05:24:43;13.25;;;6.93;;
77466;SDS011;66564;42.482;25.548;2023-09-19T05:27:12;21.95;;;8.95;;
77466;SDS011;66564;42.482;25.548;2023-09-19T05:29:37;10.02;;;6.93;;
77466;SDS011;66564;42.482;25.548;2023-09-19T05:32:03;17.02;;;8.30;;
77466;SDS011;66564;42.482;25.548;2023-09-19T05:34:30;15.95;;;8.50;;
77466;SDS011;66564;42.482;25.548;2023-09-19T05:36:55;17.85;;;11.23;;
77466;SDS011;66564;42.482;25.548;2023-09-19T05:39:22;19.30;;;9.98;;
77466;SDS011;66564;42.482;25.548;2023-09-19T05:41:48;27.63;;;20.08;;
77466;SDS011;66564;42.482;25.548;2023-09-19T05:44:13;34.13;;;24.08;;
77466;SDS011;66564;42.482;25.548;2023-09-19T05:46:43;19.15;;;15.38;;
77466;SDS011;66564;42.482;25.548;2023-09-19T05:49:10;26.95;;;13.20;;
77466;SDS011;66564;42.482;25.548;2023-09-19T05:51:35;15.02;;;8.63;;
77466;SDS011;66564;42.482;25.548;2023-09-19T05:54:01;19.10;;;11.25;;
77466;SDS011;66564;42.482;25.548;2023-09-19T05:56:26;21.23;;;12.35;;
77466;SDS011;66564;42.482;25.548;2023-09-19T05:58:52;12.95;;;6.20;;
77466;SDS011;66564;42.482;25.548;2023-09-19T06:01:18;19.45;;;8.00;;
77466;SDS011;66564;42.482;25.548;2023-09-19T06:03:44;11.00;;;6.13;;
77466;SDS011;66564;42.482;25.548;2023-09-19T06:06:09;7.75;;;5.85;;
77466;SDS011;66564;42.482;25.548;2023-09-19T06:08:35;20.05;;;9.45;;
77466;SDS011;66564;42.482;25.548;2023-09-19T06:11:00;16.40;;;9.63;;
77466;SDS011;66564;42.482;25.548;2023-09-19T06:13:29;13.25;;;7.25;;
77466;SDS011;66564;42.482;25.548;2023-09-19T06:15:55;11.43;;;5.90;;
77466;SDS011;66564;42.482;25.548;2023-09-19T06:18:25;11.50;;;7.13;;
77466;SDS011;66564;42.482;25.548;2023-09-19T06:20:51;10.00;;;6.20;;
77466;SDS011;66564;42.482;25.548;2023-09-19T06:23:16;11.02;;;6.25;;
77466;SDS011;66564;42.482;25.548;2023-09-19T06:25:43;10.38;;;6.18;;
77466;SDS011;66564;42.482;25.548;2023-09-19T06:28:09;9.10;;;5.15;;
77466;SDS011;66564;42.482;25.548;2023-09-19T06:30:37;9.25;;;5.70;;
77466;SDS011;66564;42.482;25.548;2023-09-19T06:33:06;7.15;;;5.68;;
77466;SDS011;66564;42.482;25.548;2023-09-19T06:35:32;11.82;;;5.53;;
77466;SDS011;66564;42.482;25.548;2023-09-19T06:38:01;11.90;;;5.93;;
77466;SDS011;66564;42.482;25.548;2023-09-19T06:40:28;9.75;;;5.45;;
77466;SDS011;66564;42.482;25.548;2023-09-19T06:42:56;7.28;;;5.15;;
77466;SDS011;66564;42.482;25.548;2023-09-19T06:45:22;9.90;;;6.10;;
77466;SDS011;66564;42.482;25.548;2023-09-19T06:47:48;8.25;;;4.93;;
77466;SDS011;66564;42.482;25.548;2023-09-19T06:50:15;11.35;;;5.05;;
77466;SDS011;66564;42.482;25.548;2023-09-19T06:52:45;9.32;;;5.70;;
77466;SDS011;66564;42.482;25.548;2023-09-19T06:55:15;11.43;;;5.80;;
77466;SDS011;66564;42.482;25.548;2023-09-19T06:57:41;10.30;;;5.53;;
77466;SDS011;66564;42.482;25.548;2023-09-19T07:00:11;20.10;;;7.13;;
77466;SDS011;66564;42.482;25.548;2023-09-19T07:03:03;7.70;;;4.82;;
77466;SDS011;66564;42.482;25.548;2023-09-19T07:05:34;10.90;;;6.05;;
77466;SDS011;66564;42.482;25.548;2023-09-19T07:08:02;7.97;;;6.30;;
77466;SDS011;66564;42.482;25.548;2023-09-19T07:10:28;9.32;;;6.28;;
77466;SDS011;66564;42.482;25.548;2023-09-19T07:12:55;8.38;;;7.00;;
77466;SDS011;66564;42.482;25.548;2023-09-19T07:15:21;9.35;;;7.47;;
77466;SDS011;66564;42.482;25.548;2023-09-19T07:17:48;8.80;;;7.13;;
77466;SDS011;66564;42.482;25.548;2023-09-19T07:20:13;7.97;;;6.35;;
77466;SDS011;66564;42.482;25.548;2023-09-19T07:22:41;8.02;;;6.63;;
77466;SDS011;66564;42.482;25.548;2023-09-19T07:25:07;9.18;;;7.15;;
77466;SDS011;66564;42.482;25.548;2023-09-19T07:27:34;9.98;;;8.00;;
77466;SDS011;66564;42.482;25.548;2023-09-19T07:29:59;9.27;;;6.03;;
77466;SDS011;66564;42.482;25.548;2023-09-19T07:32:25;10.05;;;8.32;;
77466;SDS011;66564;42.482;25.548;2023-09-19T07:34:50;7.78;;;5.88;;
77466;SDS011;66564;42.482;25.548;2023-09-19T07:37:16;11.38;;;6.93;;
77466;SDS011;66564;42.482;25.548;2023-09-19T07:39:41;16.20;;;8.48;;
77466;SDS011;66564;42.482;25.548;2023-09-19T07:42:08;11.27;;;7.72;;
77466;SDS011;66564;42.482;25.548;2023-09-19T07:44:35;7.10;;;5.88;;
77466;SDS011;66564;42.482;25.548;2023-09-19T07:47:01;9.57;;;6.82;;
77466;SDS011;66564;42.482;25.548;2023-09-19T07:49:31;7.78;;;5.53;;
77466;SDS011;66564;42.482;25.548;2023-09-19T07:51:56;9.02;;;5.40;;
77466;SDS011;66564;42.482;25.548;2023-09-19T07:54:22;7.80;;;5.82;;
77466;SDS011;66564;42.482;25.548;2023-09-19T07:56:47;8.20;;;5.50;;
77466;SDS011;66564;42.482;25.548;2023-09-19T07:59:13;11.80;;;5.50;;
77466;SDS011;66564;42.482;25.548;2023-09-19T08:01:38;6.43;;;5.28;;
77466;SDS011;66564;42.482;25.548;2023-09-19T08:04:06;7.82;;;5.50;;
77466;SDS011;66564;42.482;25.548;2023-09-19T08:06:32;7.35;;;5.15;;
77466;SDS011;66564;42.482;25.548;2023-09-19T08:08:58;8.20;;;5.88;;
77466;SDS011;66564;42.482;25.548;2023-09-19T08:11:25;6.53;;;4.85;;
77466;SDS011;66564;42.482;25.548;2023-09-19T08:13:51;6.65;;;5.32;;
77466;SDS011;66564;42.482;25.548;2023-09-19T08:16:17;9.25;;;5.30;;
77466;SDS011;66564;42.482;25.548;2023-09-19T08:18:48;9.23;;;5.35;;
77466;SDS011;66564;42.482;25.548;2023-09-19T08:21:19;7.53;;;5.38;;
77466;SDS011;66564;42.482;25.548;2023-09-19T08:23:45;7.28;;;5.75;;
77466;SDS011;66564;42.482;25.548;2023-09-19T08:26:11;6.60;;;4.75;;
77466;SDS011;66564;42.482;25.548;2023-09-19T08:28:36;11.02;;;5.78;;
77466;SDS011;66564;42.482;25.548;2023-09-19T08:31:05;9.90;;;6.00;;
77466;SDS011;66564;42.482;25.548;2023-09-19T08:33:32;8.43;;;4.90;;
77466;SDS011;66564;42.482;25.548;2023-09-19T08:36:00;9.30;;;4.93;;
77466;SDS011;66564;42.482;25.548;2023-09-19T08:38:26;6.75;;;4.75;;
77466;SDS011;66564;42.482;25.548;2023-09-19T08:43:24;9.85;;;5.22;;
77466;SDS011;66564;42.482;25.548;2023-09-19T08:45:51;9.82;;;5.45;;
77466;SDS011;66564;42.482;25.548;2023-09-19T08:48:28;7.72;;;5.10;;
77466;SDS011;66564;42.482;25.548;2023-09-19T08:51:18;8.00;;;4.82;;
77466;SDS011;66564;42.482;25.548;2023-09-19T08:53:59;7.47;;;5.05;;
77466;SDS011;66564;42.482;25.548;2023-09-19T08:56:35;8.15;;;5.25;;
77466;SDS011;66564;42.482;25.548;2023-09-19T08:59:05;6.15;;;5.53;;
77466;SDS011;66564;42.482;25.548;2023-09-19T09:01:36;9.93;;;5.05;;
77466;SDS011;66564;42.482;25.548;2023-09-19T09:04:04;6.88;;;4.63;;
77466;SDS011;66564;42.482;25.548;2023-09-19T09:06:34;8.57;;;4.80;;
77466;SDS011;66564;42.482;25.548;2023-09-19T09:08:59;8.63;;;4.93;;
77466;SDS011;66564;42.482;25.548;2023-09-19T09:11:25;11.45;;;5.40;;
77466;SDS011;66564;42.482;25.548;2023-09-19T09:13:53;6.75;;;5.00;;
77466;SDS011;66564;42.482;25.548;2023-09-19T09:16:18;6.55;;;4.60;;
77466;SDS011;66564;42.482;25.548;2023-09-19T09:18:44;7.82;;;5.03;;
77466;SDS011;66564;42.482;25.548;2023-09-19T09:21:11;7.90;;;4.30;;
77466;SDS011;66564;42.482;25.548;2023-09-19T09:23:38;6.97;;;4.40;;
77466;SDS011;66564;42.482;25.548;2023-09-19T09:26:04;6.72;;;5.43;;
77466;SDS011;66564;42.482;25.548;2023-09-19T09:28:31;7.63;;;4.78;;
77466;SDS011;66564;42.482;25.548;2023-09-19T09:30:59;6.50;;;5.07;;
77466;SDS011;66564;42.482;25.548;2023-09-19T09:33:32;5.93;;;4.45;;
77466;SDS011;66564;42.482;25.548;2023-09-19T09:35:59;6.95;;;4.90;;
77466;SDS011;66564;42.482;25.548;2023-09-19T09:38:28;10.68;;;5.30;;
77466;SDS011;66564;42.482;25.548;2023-09-19T09:40:59;6.00;;;4.85;;
77466;SDS011;66564;42.482;25.548;2023-09-19T09:43:38;8.57;;;4.82;;
77466;SDS011;66564;42.482;25.548;2023-09-19T09:48:43;11.65;;;4.95;;
77466;SDS011;66564;42.482;25.548;2023-09-19T09:51:17;7.47;;;4.40;;
77466;SDS011;66564;42.482;25.548;2023-09-19T09:54:09;6.10;;;4.70;;
77466;SDS011;66564;42.482;25.548;2023-09-19T09:56:56;5.97;;;4.30;;
77466;SDS011;66564;42.482;25.548;2023-09-19T09:59:49;7.63;;;5.13;;
77466;SDS011;66564;42.482;25.548;2023-09-19T10:02:17;8.65;;;4.85;;
77466;SDS011;66564;42.482;25.548;2023-09-19T10:04:52;6.47;;;4.40;;
77466;SDS011;66564;42.482;25.548;2023-09-19T10:07:29;5.45;;;4.00;;
77466;SDS011;66564;42.482;25.548;2023-09-19T10:10:03;10.95;;;4.97;;
77466;SDS011;66564;42.482;25.548;2023-09-19T10:12:44;6.75;;;4.25;;
77466;SDS011;66564;42.482;25.548;2023-09-19T10:15:12;7.60;;;5.30;;
77466;SDS011;66564;42.482;25.548;2023-09-19T10:17:41;6.72;;;4.03;;
77466;SDS011;66564;42.482;25.548;2023-09-19T10:20:14;8.13;;;5.00;;
77466;SDS011;66564;42.482;25.548;2023-09-19T10:22:59;6.32;;;4.43;;
77466;SDS011;66564;42.482;25.548;2023-09-19T10:25:26;7.10;;;4.38;;
77466;SDS011;66564;42.482;25.548;2023-09-19T10:28:08;6.55;;;4.60;;
77466;SDS011;66564;42.482;25.548;2023-09-19T10:30:37;7.55;;;4.70;;
77466;SDS011;66564;42.482;25.548;2023-09-19T10:33:09;9.65;;;4.95;;
77466;SDS011;66564;42.482;25.548;2023-09-19T10:35:37;6.00;;;4.47;;
77466;SDS011;66564;42.482;25.548;2023-09-19T10:38:09;5.80;;;4.40;;
77466;SDS011;66564;42.482;25.548;2023-09-19T10:40:36;10.18;;;5.40;;
77466;SDS011;66564;42.482;25.548;2023-09-19T10:43:06;8.48;;;4.88;;
77466;SDS011;66564;42.482;25.548;2023-09-19T10:45:32;8.07;;;5.28;;
77466;SDS011;66564;42.482;25.548;2023-09-19T10:47:59;8.93;;;4.43;;
77466;SDS011;66564;42.482;25.548;2023-09-19T10:50:27;8.50;;;4.90;;
77466;SDS011;66564;42.482;25.548;2023-09-19T10:52:56;5.53;;;4.75;;
77466;SDS011;66564;42.482;25.548;2023-09-19T10:55:29;17.48;;;5.15;;
77466;SDS011;66564;42.482;25.548;2023-09-19T10:57:59;10.07;;;4.88;;
77466;SDS011;66564;42.482;25.548;2023-09-19T11:00:25;8.00;;;4.82;;
77466;SDS011;66564;42.482;25.548;2023-09-19T11:05:36;6.32;;;4.40;;
77466;SDS011;66564;42.482;25.548;2023-09-19T11:08:05;7.30;;;4.75;;
77466;SDS011;66564;42.482;25.548;2023-09-19T11:10:51;9.70;;;4.90;;
77466;SDS011;66564;42.482;25.548;2023-09-19T11:13:23;10.55;;;4.95;;
77466;SDS011;66564;42.482;25.548;2023-09-19T11:26:43;11.88;;;5.10;;
77466;SDS011;66564;42.482;25.548;2023-09-19T11:29:24;5.53;;;4.82;;
77466;SDS011;66564;42.482;25.548;2023-09-19T11:31:51;6.88;;;4.90;;
77466;SDS011;66564;42.482;25.548;2023-09-19T11:37:00;6.70;;;5.05;;
77466;SDS011;66564;42.482;25.548;2023-09-19T11:39:29;5.95;;;4.82;;
77466;SDS011;66564;42.482;25.548;2023-09-19T11:41:55;7.20;;;5.45;;
77466;SDS011;66564;42.482;25.548;2023-09-19T11:49:17;5.82;;;4.85;;
77466;SDS011;66564;42.482;25.548;2023-09-19T11:51:57;6.10;;;4.75;;
77466;SDS011;66564;42.482;25.548;2023-09-19T11:54:29;8.52;;;4.35;;
77466;SDS011;66564;42.482;25.548;2023-09-19T11:56:57;9.05;;;4.93;;
77466;SDS011;66564;42.482;25.548;2023-09-19T11:59:27;10.90;;;4.68;;
77466;SDS011;66564;42.482;25.548;2023-09-19T12:02:01;7.80;;;4.97;;
77466;SDS011;66564;42.482;25.548;2023-09-19T12:04:37;9.02;;;5.50;;
77466;SDS011;66564;42.482;25.548;2023-09-19T12:07:05;9.68;;;4.50;;
77466;SDS011;66564;42.482;25.548;2023-09-19T12:09:41;10.75;;;5.57;;
77466;SDS011;66564;42.482;25.548;2023-09-19T12:12:19;7.07;;;4.80;;
77466;SDS011;66564;42.482;25.548;2023-09-19T12:14:48;10.20;;;5.10;;
77466;SDS011;66564;42.482;25.548;2023-09-19T12:17:15;7.60;;;5.05;;
77466;SDS011;66564;42.482;25.548;2023-09-19T12:22:39;7.60;;;5.22;;
77466;SDS011;66564;42.482;25.548;2023-09-19T12:25:05;10.43;;;4.97;;
77466;SDS011;66564;42.482;25.548;2023-09-19T12:27:41;5.20;;;4.55;;
77466;SDS011;66564;42.482;25.548;2023-09-19T12:30:09;5.90;;;4.80;;
77466;SDS011;66564;42.482;25.548;2023-09-19T12:32:39;8.00;;;4.90;;
77466;SDS011;66564;42.482;25.548;2023-09-19T12:35:05;7.07;;;4.35;;
77466;SDS011;66564;42.482;25.548;2023-09-19T12:37:44;7.40;;;5.20;;
77466;SDS011;66564;42.482;25.548;2023-09-19T12:40:13;9.10;;;4.45;;
77466;SDS011;66564;42.482;25.548;2023-09-19T12:42:47;6.97;;;4.38;;
77466;SDS011;66564;42.482;25.548;2023-09-19T12:45:14;6.38;;;5.13;;
77466;SDS011;66564;42.482;25.548;2023-09-19T12:53:30;6.18;;;4.65;;
77466;SDS011;66564;42.482;25.548;2023-09-19T12:55:58;10.05;;;5.50;;
77466;SDS011;66564;42.482;25.548;2023-09-19T12:58:24;8.15;;;5.15;;
77466;SDS011;66564;42.482;25.548;2023-09-19T13:00:50;11.70;;;5.00;;
77466;SDS011;66564;42.482;25.548;2023-09-19T13:05:50;5.97;;;4.43;;
77466;SDS011;66564;42.482;25.548;2023-09-19T13:08:24;6.60;;;4.65;;
77466;SDS011;66564;42.482;25.548;2023-09-19T13:13:34;5.65;;;4.93;;
77466;SDS011;66564;42.482;25.548;2023-09-19T13:16:01;10.60;;;4.68;;
77466;SDS011;66564;42.482;25.548;2023-09-19T13:18:27;9.40;;;6.00;;
77466;SDS011;66564;42.482;25.548;2023-09-19T13:21:07;8.48;;;4.90;;
77466;SDS011;66564;42.482;25.548;2023-09-19T13:23:40;9.85;;;4.32;;
77466;SDS011;66564;42.482;25.548;2023-09-19T13:26:08;12.10;;;5.15;;
77466;SDS011;66564;42.482;25.548;2023-09-19T13:28:35;7.00;;;5.07;;
77466;SDS011;66564;42.482;25.548;2023-09-19T13:31:02;6.63;;;4.80;;
77466;SDS011;66564;42.482;25.548;2023-09-19T13:33:28;5.47;;;4.80;;
77466;SDS011;66564;42.482;25.548;2023-09-19T13:35:53;7.80;;;4.70;;
77466;SDS011;66564;42.482;25.548;2023-09-19T13:38:19;7.70;;;5.10;;
77466;SDS011;66564;42.482;25.548;2023-09-19T13:40:47;6.78;;;4.35;;
77466;SDS011;66564;42.482;25.548;2023-09-19T13:43:13;10.00;;;4.55;;
77466;SDS011;66564;42.482;25.548;2023-09-19T13:45:38;7.82;;;5.15;;
77466;SDS011;66564;42.482;25.548;2023-09-19T13:48:07;7.35;;;5.10;;
77466;SDS011;66564;42.482;25.548;2023-09-19T13:50:33;6.93;;;5.05;;
77466;SDS011;66564;42.482;25.548;2023-09-19T13:53:01;7.45;;;4.78;;
77466;SDS011;66564;42.482;25.548;2023-09-19T13:55:27;6.93;;;4.15;;
77466;SDS011;66564;42.482;25.548;2023-09-19T13:57:53;7.10;;;4.90;;
77466;SDS011;66564;42.482;25.548;2023-09-19T14:00:24;8.00;;;4.65;;
77466;SDS011;66564;42.482;25.548;2023-09-19T14:02:49;15.05;;;5.43;;
77466;SDS011;66564;42.482;25.548;2023-09-19T14:05:16;5.82;;;4.57;;
77466;SDS011;66564;42.482;25.548;2023-09-19T14:07:42;8.35;;;5.03;;
77466;SDS011;66564;42.482;25.548;2023-09-19T14:10:09;7.15;;;4.28;;
77466;SDS011;66564;42.482;25.548;2023-09-19T14:12:38;6.28;;;4.85;;
77466;SDS011;66564;42.482;25.548;2023-09-19T14:15:09;9.13;;;5.28;;
77466;SDS011;66564;42.482;25.548;2023-09-19T14:17:36;7.03;;;4.38;;
77466;SDS011;66564;42.482;25.548;2023-09-19T14:20:02;9.38;;;5.00;;
77466;SDS011;66564;42.482;25.548;2023-09-19T14:22:28;5.85;;;4.57;;
77466;SDS011;66564;42.482;25.548;2023-09-19T14:24:53;8.10;;;4.82;;
77466;SDS011;66564;42.482;25.548;2023-09-19T14:27:19;7.93;;;4.60;;
77466;SDS011;66564;42.482;25.548;2023-09-19T14:29:45;6.93;;;4.40;;
77466;SDS011;66564;42.482;25.548;2023-09-19T14:32:10;7.90;;;4.47;;
77466;SDS011;66564;42.482;25.548;2023-09-19T14:34:36;7.82;;;5.00;;
77466;SDS011;66564;42.482;25.548;2023-09-19T14:37:06;6.45;;;4.80;;
77466;SDS011;66564;42.482;25.548;2023-09-19T14:39:36;6.60;;;4.60;;
77466;SDS011;66564;42.482;25.548;2023-09-19T14:42:04;7.95;;;4.88;;
77466;SDS011;66564;42.482;25.548;2023-09-19T14:44:29;8.60;;;4.78;;
77466;SDS011;66564;42.482;25.548;2023-09-19T14:46:55;10.02;;;5.25;;
77466;SDS011;66564;42.482;25.548;2023-09-19T14:49:23;7.47;;;5.03;;
77466;SDS011;66564;42.482;25.548;2023-09-19T14:51:50;7.60;;;4.63;;
77466;SDS011;66564;42.482;25.548;2023-09-19T14:54:17;8.25;;;5.07;;
77466;SDS011;66564;42.482;25.548;2023-09-19T14:56:43;6.85;;;4.80;;
77466;SDS011;66564;42.482;25.548;2023-09-19T14:59:09;7.40;;;4.93;;
77466;SDS011;66564;42.482;25.548;2023-09-19T15:01:36;9.95;;;4.60;;
77466;SDS011;66564;42.482;25.548;2023-09-19T15:04:02;9.73;;;5.32;;
77466;SDS011;66564;42.482;25.548;2023-09-19T15:06:31;7.95;;;5.07;;
77466;SDS011;66564;42.482;25.548;2023-09-19T15:08:57;7.30;;;4.72;;
77466;SDS011;66564;42.482;25.548;2023-09-19T15:11:23;8.90;;;4.60;;
77466;SDS011;66564;42.482;25.548;2023-09-19T15:13:50;11.98;;;5.22;;
77466;SDS011;66564;42.482;25.548;2023-09-19T15:16:17;15.52;;;6.03;;
77466;SDS011;66564;42.482;25.548;2023-09-19T15:18:44;11.68;;;4.70;;
77466;SDS011;66564;42.482;25.548;2023-09-19T15:21:13;9.05;;;4.57;;
77466;SDS011;66564;42.482;25.548;2023-09-19T15:23:41;9.35;;;4.93;;
77466;SDS011;66564;42.482;25.548;2023-09-19T15:26:09;15.60;;;5.82;;
77466;SDS011;66564;42.482;25.548;2023-09-19T15:28:36;8.63;;;5.03;;
77466;SDS011;66564;42.482;25.548;2023-09-19T15:31:06;11.32;;;5.47;;
77466;SDS011;66564;42.482;25.548;2023-09-19T15:33:33;8.90;;;5.00;;